Time;durP1;ratioP1;P1;durP2;ratioP2;P2;SDS_P1;SDS_P2;PMS_P1;PMS_P2;Temp;Humidity;BMP_temperature;BMP_pressure;BME280_temperature;BME280_humidity;BME280_pressure;Samples;Min_cycle;Max_cycle;Signal;HPM_P1;HPM_P2
2022/07/12 00:01:23;;;;;;;3.95;3.17;;;16.40;99.90;;;;;;5071170;28;20060;-61
2022/07/12 00:03:48;;;;;;;4.95;3.40;;;16.40;99.90;;;;;;5071620;28;20044;-61
2022/07/12 00:06:14;;;;;;;3.55;2.78;;;16.40;99.90;;;;;;5070751;28;20044;-60
2022/07/12 00:08:40;;;;;;;4.68;3.25;;;16.40;99.90;;;;;;5064420;28;20048;-60
2022/07/12 00:11:05;;;;;;;3.83;3.08;;;16.40;99.90;;;;;;5071135;28;20410;-60
2022/07/12 00:13:31;;;;;;;3.55;2.92;;;16.40;99.90;;;;;;5071021;28;20135;-60
2022/07/12 00:15:57;;;;;;;4.28;2.85;;;16.40;99.90;;;;;;5071324;28;20048;-60
2022/07/12 00:18:24;;;;;;;3.85;2.97;;;16.40;99.90;;;;;;5069620;28;20048;-60
2022/07/12 00:20:49;;;;;;;4.45;3.25;;;16.40;99.90;;;;;;5056265;28;20090;-60
2022/07/12 00:23:16;;;;;;;4.10;3.28;;;16.40;99.90;;;;;;5085350;28;20132;-60
2022/07/12 00:25:41;;;;;;;4.05;2.90;;;16.30;99.90;;;;;;5070581;28;20569;-60
2022/07/12 00:28:08;;;;;;;5.80;3.70;;;16.40;99.90;;;;;;5071331;28;20123;-61
2022/07/12 00:30:34;;;;;;;4.50;3.45;;;16.40;99.90;;;;;;5057712;28;20144;-60
2022/07/12 00:33:00;;;;;;;4.60;2.90;;;16.40;99.90;;;;;;5070999;28;20402;-60
2022/07/12 00:35:25;;;;;;;4.90;3.20;;;16.40;99.90;;;;;;5061605;28;20045;-60
2022/07/12 00:37:51;;;;;;;4.20;3.30;;;16.40;99.90;;;;;;5067385;28;20492;-60
2022/07/12 00:40:17;;;;;;;4.18;3.22;;;16.40;99.90;;;;;;5067559;28;20056;-60
2022/07/12 00:42:43;;;;;;;7.28;3.95;;;16.40;99.90;;;;;;5070522;28;20082;-60
2022/07/12 00:45:09;;;;;;;5.93;4.45;;;16.40;99.90;;;;;;5071134;28;20048;-60
2022/07/12 00:47:46;;;;;;;6.93;4.40;;;16.40;99.90;;;;;;5063145;28;20119;-60
2022/07/12 00:50:17;;;;;;;6.78;4.28;;;16.40;99.90;;;;;;5053226;28;20139;-60
2022/07/12 00:52:45;;;;;;;5.43;4.57;;;16.40;99.90;;;;;;5052022;28;20483;-60
2022/07/12 00:55:12;;;;;;;5.13;3.67;;;16.40;99.90;;;;;;5058825;28;20391;-60
2022/07/12 00:57:39;;;;;;;6.38;3.83;;;16.40;99.90;;;;;;5049027;28;20053;-60
2022/07/12 01:00:08;;;;;;;7.20;4.28;;;16.40;99.90;;;;;;5052114;28;20106;-60
2022/07/12 01:02:35;;;;;;;4.90;3.70;;;16.40;99.90;;;;;;5052299;28;20049;-59
2022/07/12 01:05:03;;;;;;;6.03;3.80;;;16.40;99.90;;;;;;5058485;28;20048;-60
2022/07/12 01:07:29;;;;;;;5.55;4.13;;;16.30;99.90;;;;;;5050159;28;20494;-60
2022/07/12 01:09:55;;;;;;;6.55;4.53;;;16.30;99.90;;;;;;5050435;28;20171;-60
2022/07/12 01:12:22;;;;;;;4.45;3.55;;;16.30;99.90;;;;;;5052773;28;20049;-61
2022/07/12 01:14:49;;;;;;;5.90;4.07;;;16.30;99.90;;;;;;5067993;28;20052;-60
2022/07/12 01:17:17;;;;;;;4.90;3.60;;;16.20;99.90;;;;;;5069882;28;20562;-60
2022/07/12 01:19:44;;;;;;;4.85;3.85;;;16.20;99.90;;;;;;5069252;28;20044;-60
2022/07/12 01:22:10;;;;;;;4.55;3.60;;;16.20;99.90;;;;;;5063035;28;20045;-60
2022/07/12 01:24:37;;;;;;;4.93;3.50;;;16.20;99.90;;;;;;5061318;28;20052;-61
2022/07/12 01:27:07;;;;;;;7.05;3.67;;;16.20;99.90;;;;;;5052496;28;20048;-60
2022/07/12 01:29:33;;;;;;;6.70;4.00;;;16.10;99.90;;;;;;5050410;28;20056;-60
2022/07/12 01:34:48;;;;;;;4.50;3.90;;;16.20;99.90;;;;;;5051186;28;20041;-59
2022/07/12 01:37:15;;;;;;;4.70;3.88;;;16.20;99.90;;;;;;5070408;28;20105;-59
2022/07/12 01:39:42;;;;;;;5.25;3.92;;;16.20;99.90;;;;;;5068906;28;20439;-61
2022/07/12 01:42:07;;;;;;;5.70;4.00;;;16.20;99.90;;;;;;5065184;28;20175;-61
2022/07/12 01:44:34;;;;;;;4.57;3.65;;;16.20;99.90;;;;;;5064395;28;20127;-61
2022/07/12 01:46:59;;;;;;;5.43;3.80;;;16.20;99.90;;;;;;5068553;28;20056;-61
2022/07/12 01:49:25;;;;;;;4.68;3.67;;;16.20;99.90;;;;;;5061044;28;20056;-61
2022/07/12 01:51:51;;;;;;;4.75;4.03;;;16.20;99.90;;;;;;5050655;28;20131;-61
2022/07/12 01:54:17;;;;;;;5.90;4.00;;;16.20;99.90;;;;;;5053072;28;20048;-61
2022/07/12 01:56:43;;;;;;;4.70;3.72;;;16.20;99.90;;;;;;5049914;28;20052;-61
2022/07/12 01:59:09;;;;;;;5.32;3.47;;;16.20;99.90;;;;;;5050144;28;20067;-61
2022/07/12 02:01:37;;;;;;;4.78;3.60;;;16.10;99.90;;;;;;5083057;28;20413;-61
2022/07/12 02:04:04;;;;;;;4.68;3.78;;;16.10;99.90;;;;;;5068049;28;20115;-61
2022/07/12 02:06:30;;;;;;;5.30;3.50;;;16.20;99.90;;;;;;5062957;28;20105;-61
2022/07/12 02:08:55;;;;;;;4.38;3.58;;;16.20;99.90;;;;;;5072435;28;20497;-61
2022/07/12 02:11:21;;;;;;;4.30;3.33;;;16.20;99.90;;;;;;5062949;28;20168;-61
2022/07/12 02:13:47;;;;;;;6.05;4.07;;;16.10;99.90;;;;;;5059350;28;20098;-61
2022/07/12 02:16:13;;;;;;;5.57;4.20;;;16.10;99.90;;;;;;5063032;28;20041;-61
2022/07/12 02:18:38;;;;;;;4.95;3.90;;;16.10;99.90;;;;;;5072845;28;20048;-61
2022/07/12 02:21:04;;;;;;;4.30;3.58;;;16.10;99.90;;;;;;5059418;28;20402;-61
2022/07/12 02:23:30;;;;;;;5.28;4.22;;;16.10;99.90;;;;;;5057428;28;20551;-61
2022/07/12 02:25:56;;;;;;;4.50;3.90;;;16.10;99.90;;;;;;5061992;28;20473;-61
2022/07/12 02:28:21;;;;;;;8.50;4.35;;;16.10;99.90;;;;;;5057446;28;20037;-60
2022/07/12 02:30:47;;;;;;;4.63;3.80;;;16.20;99.90;;;;;;5062949;28;20044;-61
2022/07/12 02:33:15;;;;;;;5.10;3.85;;;16.20;99.90;;;;;;5073399;28;20040;-61
2022/07/12 02:35:42;;;;;;;5.20;4.10;;;16.10;99.90;;;;;;5071397;28;20083;-61
2022/07/12 02:38:07;;;;;;;5.60;3.72;;;16.10;99.90;;;;;;5067008;28;20124;-62
2022/07/12 02:43:17;;;;;;;5.45;3.70;;;16.10;99.90;;;;;;5073216;28;20098;-61
2022/07/12 02:45:43;;;;;;;4.35;3.53;;;16.10;99.90;;;;;;5065499;28;20403;-61
2022/07/12 02:48:10;;;;;;;5.43;3.83;;;16.00;99.90;;;;;;5071389;28;20044;-60
2022/07/12 02:50:37;;;;;;;5.15;3.67;;;16.00;99.90;;;;;;5072037;28;20474;-61
2022/07/12 02:53:03;;;;;;;5.20;3.70;;;16.00;99.90;;;;;;5071274;28;20053;-61
2022/07/12 02:55:29;;;;;;;5.15;3.92;;;16.00;99.90;;;;;;5070417;28;20045;-61
2022/07/12 02:57:55;;;;;;;4.70;3.92;;;16.00;99.90;;;;;;5072297;28;20052;-61
2022/07/12 03:00:20;;;;;;;4.60;4.00;;;16.00;99.90;;;;;;5072677;28;20083;-61
2022/07/12 03:02:46;;;;;;;5.65;4.10;;;16.00;99.90;;;;;;5070766;28;20154;-63
2022/07/12 03:05:12;;;;;;;6.50;3.85;;;16.00;99.90;;;;;;5073167;28;20083;-61
2022/07/12 03:07:38;;;;;;;6.30;4.20;;;16.00;99.90;;;;;;5070893;28;20047;-61
2022/07/12 03:10:04;;;;;;;4.97;4.15;;;16.00;99.90;;;;;;5053318;28;20498;-61
2022/07/12 03:12:30;;;;;;;6.18;4.20;;;16.00;99.90;;;;;;5069981;28;20047;-61
2022/07/12 03:14:56;;;;;;;6.50;4.13;;;15.90;99.90;;;;;;5061431;28;20131;-61
2022/07/12 03:17:22;;;;;;;5.28;4.28;;;15.90;99.90;;;;;;5071564;28;20048;-61
2022/07/12 03:19:47;;;;;;;5.68;4.45;;;15.90;99.90;;;;;;5065569;28;20047;-61
2022/07/12 03:22:13;;;;;;;5.82;4.30;;;15.90;99.90;;;;;;5067705;28;20456;-61
2022/07/12 03:24:39;;;;;;;5.50;4.40;;;15.90;99.90;;;;;;5072804;28;20044;-61
2022/07/12 03:27:05;;;;;;;4.80;4.10;;;15.90;99.90;;;;;;5064305;28;20052;-61
2022/07/12 03:29:31;;;;;;;5.25;4.55;;;15.90;99.90;;;;;;5072177;28;20036;-61
2022/07/12 03:31:56;;;;;;;5.93;5.05;;;15.90;99.90;;;;;;5069655;28;20050;-61
2022/07/12 03:34:22;;;;;;;5.90;4.88;;;15.90;99.90;;;;;;5070658;28;20052;-61
2022/07/12 03:36:48;;;;;;;7.20;5.47;;;15.80;99.90;;;;;;5052599;28;20068;-60
2022/07/12 03:39:14;;;;;;;7.15;5.20;;;15.80;99.90;;;;;;5058411;28;20044;-61
2022/07/12 03:41:40;;;;;;;6.65;5.07;;;15.80;99.90;;;;;;5052065;28;20041;-61
2022/07/12 03:44:08;;;;;;;6.05;5.10;;;15.80;99.90;;;;;;5034418;28;20056;-61
2022/07/12 03:46:34;;;;;;;5.72;4.82;;;15.80;99.90;;;;;;5052058;28;20080;-61
2022/07/12 03:48:59;;;;;;;6.72;4.90;;;15.80;99.90;;;;;;5054796;28;20072;-61
2022/07/12 03:51:26;;;;;;;6.18;5.40;;;15.90;99.90;;;;;;5058789;28;20105;-61
2022/07/12 03:53:52;;;;;;;7.05;5.25;;;15.90;99.90;;;;;;5052040;28;20062;-61
2022/07/12 03:59:02;;;;;;;7.85;5.43;;;15.90;99.90;;;;;;5050824;28;20064;-61
2022/07/12 04:01:28;;;;;;;5.50;4.82;;;15.90;99.90;;;;;;5062367;28;20057;-61
2022/07/12 04:03:56;;;;;;;6.07;5.38;;;15.90;99.90;;;;;;5059611;28;20051;-63
2022/07/12 04:06:22;;;;;;;7.45;5.63;;;15.90;99.90;;;;;;5061657;28;20076;-61
2022/07/12 04:08:47;;;;;;;7.93;6.38;;;15.90;99.90;;;;;;5067871;28;20076;-61
2022/07/12 04:11:13;;;;;;;9.55;5.75;;;15.90;99.90;;;;;;5061159;28;20049;-61
2022/07/12 04:13:39;;;;;;;8.25;6.90;;;15.90;99.90;;;;;;5057332;28;20049;-63
2022/07/12 04:16:05;;;;;;;8.45;6.10;;;15.80;99.90;;;;;;5053058;28;20105;-61
2022/07/12 04:18:31;;;;;;;11.05;6.30;;;15.80;99.90;;;;;;5050600;28;20136;-61
2022/07/12 04:20:58;;;;;;;6.93;5.85;;;15.80;99.90;;;;;;5060357;28;20078;-61
2022/07/12 04:23:24;;;;;;;7.82;6.18;;;15.80;99.90;;;;;;5071274;28;20083;-61
2022/07/12 04:25:50;;;;;;;9.63;6.88;;;15.80;99.90;;;;;;5069183;28;20131;-61
2022/07/12 04:28:15;;;;;;;9.13;6.63;;;15.80;99.90;;;;;;5067063;28;20120;-61
2022/07/12 04:30:43;;;;;;;8.20;6.53;;;15.80;99.90;;;;;;5060938;28;20159;-61
2022/07/12 04:33:10;;;;;;;8.38;7.03;;;15.80;99.90;;;;;;5070401;28;20041;-61
2022/07/12 04:35:36;;;;;;;8.82;6.68;;;15.80;99.90;;;;;;5069774;28;20123;-61
2022/07/12 04:38:02;;;;;;;7.45;5.80;;;15.80;99.90;;;;;;5054927;28;20045;-61
2022/07/12 04:40:28;;;;;;;11.93;7.10;;;15.80;99.90;;;;;;5050761;28;20037;-61
2022/07/12 04:42:53;;;;;;;8.98;6.78;;;15.80;99.90;;;;;;5062044;28;20048;-61
2022/07/12 04:45:19;;;;;;;7.40;6.30;;;15.80;99.90;;;;;;5050772;28;20099;-61
2022/07/12 04:47:45;;;;;;;8.32;6.80;;;15.80;99.90;;;;;;5051161;28;20061;-60
2022/07/12 04:50:11;;;;;;;8.50;7.57;;;15.80;99.90;;;;;;5050673;28;20410;-61
2022/07/12 04:52:36;;;;;;;9.95;7.43;;;15.80;99.90;;;;;;5069035;28;20045;-62
2022/07/12 04:55:03;;;;;;;9.20;7.05;;;15.90;99.90;;;;;;5053374;28;20044;-61
2022/07/12 04:57:29;;;;;;;8.80;6.85;;;15.90;99.90;;;;;;5053982;28;20490;-60
2022/07/12 04:59:54;;;;;;;7.88;6.50;;;15.90;99.90;;;;;;5050641;28;20061;-61
2022/07/12 05:02:20;;;;;;;9.38;6.88;;;15.90;99.90;;;;;;5052348;28;20045;-61
2022/07/12 05:04:46;;;;;;;10.90;8.57;;;15.90;99.90;;;;;;5055590;28;20049;-61
2022/07/12 05:07:11;;;;;;;11.80;8.85;;;15.90;99.90;;;;;;5051588;28;20041;-61
2022/07/12 05:09:37;;;;;;;10.95;8.50;;;15.90;99.90;;;;;;5053373;28;20045;-61
2022/07/12 05:12:03;;;;;;;10.50;8.05;;;15.80;99.90;;;;;;5055806;28;20052;-63
2022/07/12 05:14:29;;;;;;;9.98;7.28;;;15.80;99.90;;;;;;5050278;28;20048;-61
2022/07/12 05:16:54;;;;;;;9.15;6.50;;;15.80;99.90;;;;;;5051716;28;20376;-61
2022/07/12 05:19:21;;;;;;;14.55;6.68;;;15.90;99.90;;;;;;5057626;28;20055;-61
2022/07/12 05:21:46;;;;;;;6.65;5.45;;;15.90;99.90;;;;;;5058388;28;20124;-61
2022/07/12 05:24:12;;;;;;;7.05;5.57;;;15.90;99.90;;;;;;5055688;28;20119;-61
2022/07/12 05:26:38;;;;;;;8.48;5.57;;;15.90;99.90;;;;;;5070186;28;20161;-61
2022/07/12 05:29:04;;;;;;;7.18;5.70;;;16.00;99.90;;;;;;5064118;28;20040;-61
2022/07/12 05:31:29;;;;;;;8.63;5.95;;;16.10;99.90;;;;;;5070320;28;20040;-61
2022/07/12 05:33:55;;;;;;;8.02;5.65;;;16.10;99.90;;;;;;5061440;28;20057;-60
2022/07/12 05:36:21;;;;;;;6.72;5.07;;;16.10;99.90;;;;;;5067579;28;20453;-61
2022/07/12 05:38:47;;;;;;;8.50;5.78;;;16.10;99.90;;;;;;5074767;28;20049;-61
2022/07/12 05:41:13;;;;;;;8.32;6.13;;;16.20;99.90;;;;;;5072402;28;20047;-61
2022/07/12 05:43:39;;;;;;;7.70;6.30;;;16.20;99.90;;;;;;5071321;28;20410;-61
2022/07/12 05:46:05;;;;;;;7.35;5.28;;;16.30;99.90;;;;;;5066621;28;20119;-61
2022/07/12 05:48:31;;;;;;;9.32;5.90;;;16.30;99.90;;;;;;5074163;28;20044;-61
2022/07/12 05:53:21;;;;;;;7.15;5.53;;;16.40;99.90;;;;;;5073012;28;20461;-61
2022/07/12 05:53:45;;;;;;;7.68;6.10;;;16.40;99.90;;;;;;5072701;28;20048;-61
2022/07/12 05:56:10;;;;;;;8.48;6.35;;;16.60;99.90;;;;;;5065593;28;20056;-61
2022/07/12 05:58:36;;;;;;;8.57;6.03;;;16.60;99.90;;;;;;5056476;28;20076;-60
2022/07/12 06:01:02;;;;;;;7.95;5.82;;;16.70;99.90;;;;;;5062207;28;20157;-60
2022/07/12 06:03:27;;;;;;;7.30;5.40;;;16.80;99.90;;;;;;5058612;28;20478;-61
2022/07/12 06:05:53;;;;;;;7.68;5.95;;;16.80;99.90;;;;;;5054986;28;20048;-60
2022/07/12 06:08:19;;;;;;;5.97;4.88;;;16.90;99.90;;;;;;5053807;28;20533;-60
2022/07/12 06:10:45;;;;;;;5.45;4.10;;;17.00;99.90;;;;;;5055378;28;20049;-60
2022/07/12 06:13:10;;;;;;;5.28;3.97;;;17.10;99.90;;;;;;5053919;28;20144;-63
2022/07/12 06:15:37;;;;;;;7.28;4.40;;;17.30;99.90;;;;;;5058844;28;20201;-60
2022/07/12 06:18:03;;;;;;;4.70;3.53;;;17.30;99.90;;;;;;5070803;28;20048;-60
2022/07/12 06:20:29;;;;;;;5.18;4.00;;;17.40;99.90;;;;;;5057171;28;20040;-60
2022/07/12 06:22:55;;;;;;;5.05;3.88;;;17.50;99.90;;;;;;5066111;28;20120;-61
2022/07/12 06:25:20;;;;;;;4.55;3.83;;;17.60;99.90;;;;;;5065330;28;20041;-60
2022/07/12 06:27:47;;;;;;;5.40;3.63;;;17.70;99.90;;;;;;5058097;28;20047;-60
2022/07/12 06:30:16;;;;;;;6.57;3.90;;;17.80;99.90;;;;;;5069446;28;20048;-62
2022/07/12 06:32:43;;;;;;;5.25;4.00;;;18.00;99.90;;;;;;5064297;28;20045;-60
2022/07/12 06:35:08;;;;;;;4.65;3.55;;;18.10;99.90;;;;;;5073647;28;20478;-60
2022/07/12 06:37:34;;;;;;;6.22;4.10;;;18.40;99.90;;;;;;5072289;28;20079;-61
2022/07/12 06:40:00;;;;;;;5.60;3.30;;;18.70;99.90;;;;;;5073656;28;20078;-61
2022/07/12 06:42:26;;;;;;;4.30;3.38;;;19.10;99.90;;;;;;5071505;28;20047;-61
2022/07/12 06:44:51;;;;;;;4.38;3.00;;;19.60;99.90;;;;;;5072513;28;20569;-61
2022/07/12 06:47:17;;;;;;;5.20;3.58;;;20.00;99.90;;;;;;5071477;28;20076;-61
2022/07/12 06:49:43;;;;;;;4.60;3.28;;;20.40;99.90;;;;;;5071957;28;20060;-61
2022/07/12 06:52:08;;;;;;;4.35;3.25;;;20.60;99.90;;;;;;5072263;28;20045;-63
2022/07/12 06:54:34;;;;;;;9.10;3.67;;;20.70;99.90;;;;;;5066235;28;20073;-62
2022/07/12 06:56:59;;;;;;;4.10;2.97;;;20.90;99.90;;;;;;5059416;28;20102;-62
2022/07/12 06:59:25;;;;;;;4.38;3.20;;;21.30;99.90;;;;;;5058052;28;20056;-62
2022/07/12 07:01:52;;;;;;;4.93;2.83;;;21.70;99.90;;;;;;5054419;28;20045;-62
2022/07/12 07:04:18;;;;;;;7.45;3.50;;;22.00;99.90;;;;;;5058541;28;20052;-63
2022/07/12 07:06:43;;;;;;;6.22;3.20;;;22.20;99.90;;;;;;5060281;28;20638;-62
2022/07/12 07:09:10;;;;;;;4.80;2.90;;;22.10;99.90;;;;;;5059674;28;20083;-62
2022/07/12 07:11:36;;;;;;;4.05;3.13;;;22.20;99.90;;;;;;5056308;28;20056;-63
2022/07/12 07:14:03;;;;;;;3.08;2.72;;;22.20;99.90;;;;;;5057141;28;20127;-63
2022/07/12 07:16:28;;;;;;;3.67;2.70;;;22.50;99.90;;;;;;5053588;28;20041;-61
2022/07/12 07:18:55;;;;;;;3.17;2.50;;;23.10;99.90;;;;;;5052878;28;20053;-62
2022/07/12 07:21:20;;;;;;;5.75;3.05;;;23.80;99.90;;;;;;5063730;28;20152;-62
2022/07/12 07:23:46;;;;;;;4.40;2.85;;;24.70;99.90;;;;;;5073287;28;20131;-60
2022/07/12 07:26:12;;;;;;;3.25;2.40;;;25.40;99.90;;;;;;5066961;28;20040;-60
2022/07/12 07:30:52;;;;;;;2.70;2.30;;;26.00;99.90;;;;;;5059176;28;20493;-60
2022/07/12 07:31:23;;;;;;;3.60;2.80;;;26.80;99.90;;;;;;5069036;28;20119;-61
2022/07/12 07:33:49;;;;;;;3.50;2.42;;;27.50;99.90;;;;;;5072661;28;20286;-61
2022/07/12 07:36:14;;;;;;;2.72;2.17;;;27.80;99.90;;;;;;5070719;28;20063;-62
2022/07/12 07:38:40;;;;;;;2.42;2.00;;;28.10;99.90;;;;;;5072134;28;20048;-61
2022/07/12 07:41:06;;;;;;;3.40;2.10;;;28.50;99.90;;;;;;5054816;28;20048;-60
2022/07/12 07:43:32;;;;;;;3.72;2.17;;;28.80;98.90;;;;;;5063868;28;20195;-61
2022/07/12 07:45:57;;;;;;;3.55;2.28;;;28.90;99.90;;;;;;5058486;28;20501;-62
2022/07/12 07:48:23;;;;;;;2.53;1.80;;;29.10;99.00;;;;;;5058817;28;20367;-64
2022/07/12 07:50:49;;;;;;;2.38;1.75;;;28.80;98.50;;;;;;5054128;28;20041;-61
2022/07/12 07:53:14;;;;;;;2.97;2.00;;;29.00;99.10;;;;;;5067424;28;20076;-61
2022/07/12 07:55:40;;;;;;;2.63;2.05;;;29.10;97.70;;;;;;5063156;28;20036;-62
2022/07/12 07:58:06;;;;;;;2.45;1.90;;;28.80;98.20;;;;;;5058696;28;20045;-62
2022/07/12 08:00:32;;;;;;;1.90;1.60;;;28.70;98.40;;;;;;5066220;28;20064;-61
2022/07/12 08:02:58;;;;;;;2.42;1.70;;;28.80;98.90;;;;;;5063439;28;20045;-62
2022/07/12 08:05:25;;;;;;;3.13;1.80;;;28.90;98.80;;;;;;5050330;28;20052;-65
2022/07/12 08:07:51;;;;;;;2.65;1.70;;;29.00;98.80;;;;;;5057065;28;20055;-62
2022/07/12 08:10:17;;;;;;;2.92;1.75;;;29.20;99.00;;;;;;5051709;28;20132;-62
2022/07/12 08:12:42;;;;;;;1.60;1.48;;;29.20;98.00;;;;;;5050123;28;20045;-62
2022/07/12 08:15:09;;;;;;;3.22;1.73;;;29.50;97.60;;;;;;5054065;28;20075;-61
2022/07/12 08:17:36;;;;;;;2.80;1.80;;;29.70;97.40;;;;;;5058111;28;20054;-62
2022/07/12 08:20:05;;;;;;;2.10;1.60;;;29.90;97.60;;;;;;5059260;28;20083;-61
2022/07/12 08:22:31;;;;;;;2.65;1.85;;;29.80;96.60;;;;;;5057774;28;20076;-61
2022/07/12 08:24:57;;;;;;;2.80;1.42;;;29.50;96.50;;;;;;5069032;28;20032;-62
2022/07/12 08:27:23;;;;;;;2.15;1.58;;;29.20;96.90;;;;;;5064192;28;20044;-61
2022/07/12 08:29:50;;;;;;;2.45;1.67;;;29.00;97.00;;;;;;5056730;28;20061;-62
2022/07/12 08:32:15;;;;;;;2.95;1.77;;;28.70;97.50;;;;;;5059108;28;20492;-62
2022/07/12 08:34:42;;;;;;;3.20;1.70;;;28.60;97.40;;;;;;5050631;28;20045;-62
2022/07/12 08:37:08;;;;;;;4.93;2.00;;;28.30;97.70;;;;;;5066335;28;20536;-62
2022/07/12 08:39:33;;;;;;;3.80;2.00;;;28.10;97.70;;;;;;5067860;28;20044;-62
2022/07/12 08:41:59;;;;;;;3.72;1.60;;;28.10;98.10;;;;;;5051691;28;20059;-62
2022/07/12 08:44:25;;;;;;;2.75;1.88;;;28.10;98.10;;;;;;5052510;28;20037;-62
2022/07/12 08:46:52;;;;;;;2.00;1.70;;;27.90;98.20;;;;;;5052008;28;20090;-62
2022/07/12 08:49:18;;;;;;;2.95;1.85;;;27.90;98.20;;;;;;5051900;28;20530;-62
2022/07/12 08:51:44;;;;;;;1.45;1.35;;;27.80;98.60;;;;;;5053520;28;20117;-62
2022/07/12 08:54:12;;;;;;;2.47;1.60;;;28.00;98.70;;;;;;5050427;28;20122;-61
2022/07/12 08:56:43;;;;;;;3.50;2.10;;;28.20;98.60;;;;;;5052170;28;20083;-63
2022/07/12 08:59:16;;;;;;;2.78;1.77;;;28.40;97.90;;;;;;5066384;28;20048;-63
2022/07/12 09:01:50;;;;;;;4.15;2.10;;;28.60;97.60;;;;;;5053840;28;20114;-61
2022/07/12 09:04:20;;;;;;;2.88;1.67;;;28.80;97.90;;;;;;5056315;28;20079;-62
2022/07/12 09:06:47;;;;;;;4.03;1.75;;;28.90;97.40;;;;;;5050971;28;21779;-62
2022/07/12 09:09:29;;;;;;;3.45;1.83;;;29.10;98.00;;;;;;5050625;28;20044;-62
2022/07/12 09:11:55;;;;;;;3.42;1.80;;;29.20;97.30;;;;;;5058299;28;20059;-61
2022/07/12 09:14:21;;;;;;;7.85;2.10;;;29.30;96.60;;;;;;5056226;28;20544;-61
2022/07/12 09:17:12;;;;;;;3.03;1.88;;;29.30;96.90;;;;;;5053307;28;20053;-61
2022/07/12 09:19:39;;;;;;;3.50;1.88;;;29.40;96.70;;;;;;5057358;28;20044;-62
2022/07/12 09:22:17;;;;;;;1.95;1.63;;;29.70;97.40;;;;;;5062937;28;20132;-61
2022/07/12 09:24:43;;;;;;;3.47;2.10;;;29.60;96.80;;;;;;5048635;28;20556;-61
2022/07/12 09:27:09;;;;;;;3.20;2.30;;;29.40;96.50;;;;;;5049484;28;20041;-62
2022/07/12 09:29:50;;;;;;;2.38;1.77;;;29.30;96.00;;;;;;5056588;28;20413;-61
2022/07/12 09:37:44;;;;;;;5.22;2.05;;;28.70;96.60;;;;;;5059660;28;20147;-62
2022/07/12 09:40:11;;;;;;;3.88;1.90;;;28.50;97.10;;;;;;5064134;28;20071;-62
2022/07/12 09:42:37;;;;;;;3.15;1.90;;;28.40;97.40;;;;;;5056737;28;20048;-60
2022/07/12 09:45:04;;;;;;;3.15;2.03;;;28.40;97.20;;;;;;5051131;28;20080;-62
2022/07/12 09:47:30;;;;;;;2.80;1.80;;;28.30;97.50;;;;;;5048880;28;20084;-61
2022/07/12 09:49:56;;;;;;;3.88;2.00;;;28.20;97.10;;;;;;5049732;28;20057;-62
2022/07/12 09:52:26;;;;;;;2.65;1.85;;;28.10;97.40;;;;;;5048904;28;20116;-62
2022/07/12 09:54:54;;;;;;;3.22;2.20;;;28.20;97.20;;;;;;5062473;28;20087;-61
2022/07/12 09:57:24;;;;;;;2.35;1.88;;;28.30;97.40;;;;;;5064597;28;20040;-63
2022/07/12 09:59:52;;;;;;;2.47;1.70;;;28.40;97.60;;;;;;5053859;28;20087;-61
2022/07/12 10:02:18;;;;;;;4.10;2.00;;;28.60;97.00;;;;;;5050267;28;20053;-62
2022/07/12 10:04:46;;;;;;;2.55;1.95;;;28.70;96.60;;;;;;5033497;28;20051;-64
2022/07/12 10:07:13;;;;;;;2.45;1.75;;;28.70;96.30;;;;;;5057667;28;20080;-61
2022/07/12 10:09:41;;;;;;;3.35;2.30;;;28.80;97.20;;;;;;5056963;28;20517;-61
2022/07/12 10:12:08;;;;;;;3.38;1.80;;;28.80;96.50;;;;;;5049958;28;20071;-61
2022/07/12 10:14:35;;;;;;;1.92;1.50;;;28.70;96.60;;;;;;5052759;28;20121;-62
2022/07/12 10:17:03;;;;;;;4.68;1.63;;;28.70;96.90;;;;;;5058387;28;20048;-61
2022/07/12 10:19:35;;;;;;;3.00;1.35;;;28.60;96.60;;;;;;5033096;28;20056;-61
2022/07/12 10:22:02;;;;;;;4.07;1.83;;;28.50;96.70;;;;;;5065631;28;20071;-62
2022/07/12 10:24:44;;;;;;;2.08;1.60;;;28.40;96.60;;;;;;5069810;28;20082;-62
2022/07/12 10:27:13;;;;;;;1.83;1.50;;;28.30;96.60;;;;;;5067910;28;20098;-64
2022/07/12 10:29:42;;;;;;;1.60;1.48;;;28.20;97.00;;;;;;5061595;28;20084;-63
2022/07/12 10:32:40;;;;;;;2.85;1.60;;;28.10;97.20;;;;;;5063142;28;20045;-61
2022/07/12 10:35:18;;;;;;;2.53;1.50;;;28.10;96.80;;;;;;5061774;28;20139;-61
2022/07/12 10:38:12;;;;;;;2.33;1.42;;;28.10;97.10;;;;;;5066715;28;20056;-61
2022/07/12 10:40:45;;;;;;;1.35;1.25;;;28.30;96.90;;;;;;5070949;28;20401;-61
2022/07/12 10:43:11;;;;;;;2.75;1.58;;;28.30;96.30;;;;;;5071725;28;20121;-63
2022/07/12 10:45:46;;;;;;;2.63;1.30;;;28.30;96.80;;;;;;5073088;28;20545;-62
2022/07/12 10:48:21;;;;;;;2.20;1.27;;;28.30;96.80;;;;;;5066026;28;20052;-62
2022/07/12 10:50:55;;;;;;;3.35;1.30;;;28.30;96.30;;;;;;5073201;28;20044;-64
2022/07/12 10:53:28;;;;;;;1.75;1.20;;;28.40;96.60;;;;;;5073128;28;20036;-64
2022/07/12 10:56:18;;;;;;;1.90;1.35;;;28.40;96.50;;;;;;5071601;28;20134;-63
2022/07/12 10:58:54;;;;;;;1.45;1.10;;;28.50;96.20;;;;;;5069163;28;20127;-62
2022/07/12 11:01:31;;;;;;;3.22;1.48;;;28.60;96.00;;;;;;5068116;28;20068;-64
2022/07/12 11:04:07;;;;;;;7.03;1.20;;;28.60;95.70;;;;;;5071446;28;20446;-63
2022/07/12 11:06:37;;;;;;;2.65;1.15;;;28.70;95.70;;;;;;5073145;28;20402;-61
2022/07/12 11:09:05;;;;;;;2.60;1.08;;;28.70;95.40;;;;;;5061423;28;20115;-61
2022/07/12 11:11:39;;;;;;;3.38;1.10;;;28.70;94.90;;;;;;5073214;28;20052;-60
2022/07/12 11:14:05;;;;;;;2.08;1.10;;;28.90;94.80;;;;;;5054993;28;20048;-62
2022/07/12 11:16:31;;;;;;;2.30;1.00;;;29.00;94.20;;;;;;5073171;28;20171;-62
2022/07/12 11:18:57;;;;;;;3.05;1.05;;;28.90;95.20;;;;;;5070731;28;20079;-62
2022/07/12 11:21:24;;;;;;;1.45;0.80;;;29.10;94.00;;;;;;5061948;28;20409;-62
2022/07/12 11:23:50;;;;;;;2.70;1.20;;;29.20;93.20;;;;;;5071448;28;20040;-63
2022/07/12 11:26:17;;;;;;;2.67;1.20;;;29.30;93.40;;;;;;5072394;28;20056;-61
2022/07/12 11:28:44;;;;;;;3.05;0.90;;;29.30;93.80;;;;;;5069978;28;20044;-62
2022/07/12 11:31:17;;;;;;;2.55;0.98;;;29.30;93.90;;;;;;5072657;28;20052;-61
2022/07/12 11:33:46;;;;;;;2.42;1.30;;;29.30;93.90;;;;;;5072370;28;20036;-62
2022/07/12 11:36:13;;;;;;;1.55;1.20;;;29.30;94.20;;;;;;5071862;28;20393;-62
2022/07/12 11:38:43;;;;;;;3.25;1.25;;;29.30;94.00;;;;;;5070744;28;20149;-62
2022/07/12 11:41:09;;;;;;;3.90;1.30;;;29.30;94.00;;;;;;5072108;28;20051;-62
2022/07/12 11:43:36;;;;;;;1.42;0.90;;;29.20;94.10;;;;;;5072287;28;20076;-62
2022/07/12 11:46:04;;;;;;;3.75;1.13;;;29.20;93.20;;;;;;5071716;28;20041;-62
2022/07/12 11:48:32;;;;;;;1.75;1.00;;;29.10;93.10;;;;;;5067812;28;20494;-62
2022/07/12 11:51:03;;;;;;;1.40;1.30;;;29.00;93.40;;;;;;5071295;28;20048;-62
2022/07/12 11:53:29;;;;;;;2.13;1.40;;;28.90;93.10;;;;;;5070535;28;20572;-63
2022/07/12 11:55:57;;;;;;;2.72;1.38;;;28.90;93.50;;;;;;5070663;28;20044;-63
2022/07/12 11:58:24;;;;;;;1.50;1.10;;;28.70;93.80;;;;;;5070435;28;20113;-63
2022/07/12 12:00:52;;;;;;;1.70;1.10;;;28.80;94.20;;;;;;5071808;28;20073;-63
2022/07/12 12:03:19;;;;;;;5.03;1.48;;;28.90;93.80;;;;;;5057471;28;20048;-63
2022/07/12 12:05:50;;;;;;;1.15;1.05;;;29.10;93.60;;;;;;5074121;28;20032;-64
2022/07/12 12:08:16;;;;;;;1.65;1.00;;;29.20;93.00;;;;;;5068193;28;20139;-63
2022/07/12 12:10:43;;;;;;;1.40;1.00;;;29.20;92.70;;;;;;5070462;28;20047;-63
2022/07/12 12:13:15;;;;;;;3.67;1.00;;;29.20;91.90;;;;;;5069510;28;20064;-63
2022/07/12 12:15:41;;;;;;;2.28;1.00;;;29.20;92.10;;;;;;5071585;28;20119;-62
2022/07/12 12:18:08;;;;;;;0.95;0.82;;;29.20;92.50;;;;;;5068665;28;20171;-62
2022/07/12 12:20:37;;;;;;;2.05;1.00;;;29.10;92.80;;;;;;5059395;28;20148;-62
2022/07/12 12:23:06;;;;;;;4.75;1.15;;;29.10;92.50;;;;;;5068588;28;20048;-62
2022/07/12 12:25:32;;;;;;;3.53;1.25;;;29.10;92.20;;;;;;5071424;28;20048;-62
2022/07/12 12:28:00;;;;;;;1.85;1.10;;;29.10;92.60;;;;;;5062524;28;20124;-62
2022/07/12 12:30:27;;;;;;;1.80;1.20;;;29.10;92.50;;;;;;5071055;28;20064;-62
2022/07/12 12:32:55;;;;;;;2.08;1.40;;;29.10;92.60;;;;;;5069639;28;20049;-62
2022/07/12 12:35:38;;;;;;;1.20;1.10;;;29.10;93.00;;;;;;5070615;28;20848;-62
2022/07/12 12:38:15;;;;;;;1.45;1.10;;;29.10;92.60;;;;;;5062895;28;20052;-63
2022/07/12 12:40:51;;;;;;;2.90;1.20;;;29.20;92.30;;;;;;5071099;28;20119;-64
2022/07/12 12:43:20;;;;;;;1.58;1.08;;;29.10;91.70;;;;;;5067601;28;20113;-63
2022/07/12 12:45:53;;;;;;;2.80;1.20;;;29.10;91.80;;;;;;5068576;28;20402;-63
2022/07/12 12:48:23;;;;;;;1.13;1.00;;;29.10;91.60;;;;;;5055011;28;20049;-62
2022/07/12 12:50:51;;;;;;;2.35;1.20;;;29.00;90.90;;;;;;5070943;28;20486;-61
2022/07/12 12:53:24;;;;;;;2.55;1.40;;;29.00;91.90;;;;;;5063589;28;20056;-62
2022/07/12 12:55:52;;;;;;;2.95;1.20;;;28.90;91.70;;;;;;5059919;28;20075;-62
2022/07/12 12:58:19;;;;;;;2.58;1.30;;;28.80;91.20;;;;;;5067368;28;20505;-63
2022/07/12 13:00:48;;;;;;;1.65;1.40;;;28.70;91.60;;;;;;5071079;28;20098;-63